Time;durP1;ratioP1;P1;durP2;ratioP2;P2;SDS_P1;SDS_P2;PMS_P1;PMS_P2;Temp;Humidity;BMP_temperature;BMP_pressure;BME280_temperature;BME280_humidity;BME280_pressure;Samples;Min_cycle;Max_cycle;Signal;HPM_P1;HPM_P2
2022/09/18 00:01:30;;;;;;;0.30;0.30;;;;;;;;;;5065571;28;20428;-72
2022/09/18 00:03:58;;;;;;;0.50;0.50;;;;;;;;;;5058365;28;20428;-73
2022/09/18 00:06:27;;;;;;;0.50;0.30;;;;;;;;;;5068084;28;20431;-72
2022/09/18 00:08:56;;;;;;;0.30;0.30;;;;;;;;;;5063330;28;20427;-72
2022/09/18 00:11:24;;;;;;;0.28;0.28;;;;;;;;;;5060913;28;20431;-73
2022/09/18 00:13:52;;;;;;;0.50;0.50;;;;;;;;;;5064450;28;20481;-73
2022/09/18 00:16:20;;;;;;;0.43;0.43;;;;;;;;;;5055962;28;20435;-72
2022/09/18 00:18:50;;;;;;;0.20;0.20;;;;;;;;;;5054323;28;20436;-72
2022/09/18 00:21:19;;;;;;;0.40;0.40;;;;;;;;;;5054228;28;20435;-73
2022/09/18 00:23:46;;;;;;;0.30;0.30;;;;;;;;;;5056042;28;20915;-71
2022/09/18 00:26:14;;;;;;;1.10;0.40;;;;;;;;;;5064091;28;20427;-72
2022/09/18 00:28:41;;;;;;;0.20;0.20;;;;;;;;;;5058508;28;20424;-72
2022/09/18 00:31:10;;;;;;;0.30;0.30;;;;;;;;;;5059888;28;20435;-72
2022/09/18 00:33:38;;;;;;;0.20;0.20;;;;;;;;;;5063696;28;20479;-72
2022/09/18 00:36:10;;;;;;;0.20;0.20;;;;;;;;;;5064348;28;20434;-72
2022/09/18 00:38:41;;;;;;;0.30;0.30;;;;;;;;;;5061287;28;20425;-72
2022/09/18 00:41:11;;;;;;;0.40;0.40;;;;;;;;;;5064166;28;20432;-74
2022/09/18 00:43:38;;;;;;;0.40;0.40;;;;;;;;;;5064299;28;20485;-72
2022/09/18 00:46:24;;;;;;;0.90;0.40;;;;;;;;;;5066522;28;20432;-72
2022/09/18 00:49:13;;;;;;;0.30;0.30;;;;;;;;;;5069632;28;20512;-71
2022/09/18 00:51:41;;;;;;;0.30;0.30;;;;;;;;;;5047095;28;20463;-72
2022/09/18 00:54:17;;;;;;;0.30;0.30;;;;;;;;;;5066229;28;20439;-72
2022/09/18 00:56:46;;;;;;;0.20;0.20;;;;;;;;;;5069359;28;20428;-73
2022/09/18 00:59:15;;;;;;;0.30;0.30;;;;;;;;;;5071859;28;20439;-72
2022/09/18 01:01:42;;;;;;;0.85;0.60;;;;;;;;;;5067380;28;20481;-72
2022/09/18 01:04:11;;;;;;;0.20;0.20;;;;;;;;;;5069170;28;20804;-72
2022/09/18 01:06:44;;;;;;;1.77;0.40;;;;;;;;;;5069951;28;20428;-72
2022/09/18 01:09:20;;;;;;;0.20;0.20;;;;;;;;;;5068079;28;20431;-71
2022/09/18 01:12:02;;;;;;;0.60;0.30;;;;;;;;;;5067031;28;21113;-72
2022/09/18 01:14:48;;;;;;;1.50;0.40;;;;;;;;;;5065834;28;20452;-72
2022/09/18 01:17:25;;;;;;;0.95;0.25;;;;;;;;;;5068603;28;20506;-72
2022/09/18 01:20:24;;;;;;;0.40;0.40;;;;;;;;;;5064869;28;20424;-72
2022/09/18 01:22:52;;;;;;;0.30;0.30;;;;;;;;;;5020472;28;20440;-73
2022/09/18 01:25:19;;;;;;;0.20;0.20;;;;;;;;;;5070407;28;20427;-73
2022/09/18 01:27:59;;;;;;;0.20;0.20;;;;;;;;;;5067374;28;20431;-72
2022/09/18 01:30:26;;;;;;;0.25;0.25;;;;;;;;;;5066640;28;20553;-72
2022/09/18 01:33:05;;;;;;;0.30;0.30;;;;;;;;;;5058823;28;20475;-72
2022/09/18 01:35:58;;;;;;;0.30;0.30;;;;;;;;;;5063635;28;20513;-72
2022/09/18 01:38:31;;;;;;;0.30;0.30;;;;;;;;;;5061852;28;20542;-72
2022/09/18 01:41:06;;;;;;;0.30;0.23;;;;;;;;;;5067747;28;20556;-72
2022/09/18 01:43:35;;;;;;;0.30;0.30;;;;;;;;;;5063414;28;20431;-73
2022/09/18 01:46:06;;;;;;;1.10;0.30;;;;;;;;;;5068655;28;20427;-72
2022/09/18 01:48:35;;;;;;;0.32;0.32;;;;;;;;;;5069290;28;20459;-72
2022/09/18 01:51:08;;;;;;;0.20;0.20;;;;;;;;;;5067633;28;20431;-72
2022/09/18 01:53:40;;;;;;;0.20;0.20;;;;;;;;;;5065422;28;20445;-72
2022/09/18 01:56:10;;;;;;;0.40;0.40;;;;;;;;;;5073275;28;20437;-72
2022/09/18 01:58:38;;;;;;;0.22;0.22;;;;;;;;;;5079055;28;20496;-72
2022/09/18 02:01:09;;;;;;;0.20;0.20;;;;;;;;;;5081645;28;20433;-72
2022/09/18 02:03:40;;;;;;;0.30;0.30;;;;;;;;;;5090556;28;20426;-72
2022/09/18 02:06:10;;;;;;;0.20;0.20;;;;;;;;;;5067084;28;20426;-72
2022/09/18 02:08:37;;;;;;;0.20;0.20;;;;;;;;;;5075483;28;20434;-72
2022/09/18 02:11:06;;;;;;;0.47;0.40;;;;;;;;;;5069230;28;20982;-73
2022/09/18 02:13:49;;;;;;;0.40;0.25;;;;;;;;;;5067999;28;20909;-73
2022/09/18 02:16:27;;;;;;;0.43;0.28;;;;;;;;;;5054530;28;20494;-72
2022/09/18 02:18:56;;;;;;;0.30;0.30;;;;;;;;;;5068309;28;20445;-72
2022/09/18 02:21:28;;;;;;;0.55;0.25;;;;;;;;;;5060511;28;20948;-72
2022/09/18 02:23:57;;;;;;;0.30;0.30;;;;;;;;;;5069705;28;20442;-72
2022/09/18 02:26:25;;;;;;;0.20;0.20;;;;;;;;;;5064516;28;21113;-72
2022/09/18 02:28:55;;;;;;;0.13;0.13;;;;;;;;;;5067170;28;20427;-72
2022/09/18 02:31:23;;;;;;;0.28;0.28;;;;;;;;;;5058737;28;20427;-72
2022/09/18 02:33:52;;;;;;;0.30;0.30;;;;;;;;;;5066009;28;20431;-72
2022/09/18 02:36:37;;;;;;;0.20;0.20;;;;;;;;;;5062422;28;20944;-71
2022/09/18 02:39:15;;;;;;;0.30;0.30;;;;;;;;;;5070518;28;20438;-72
2022/09/18 02:42:03;;;;;;;0.40;0.40;;;;;;;;;;5069927;28;20828;-72
2022/09/18 02:44:39;;;;;;;0.30;0.30;;;;;;;;;;5059258;28;20437;-72
2022/09/18 02:47:16;;;;;;;0.20;0.20;;;;;;;;;;5050750;28;20429;-71
2022/09/18 02:49:43;;;;;;;0.20;0.20;;;;;;;;;;5054200;28;20427;-70
2022/09/18 02:52:13;;;;;;;0.40;0.40;;;;;;;;;;5075765;28;20431;-71
2022/09/18 02:54:45;;;;;;;0.30;0.30;;;;;;;;;;5074347;28;20436;-71
2022/09/18 02:57:26;;;;;;;0.40;0.40;;;;;;;;;;5069107;28;21157;-71
2022/09/18 02:59:55;;;;;;;0.20;0.20;;;;;;;;;;5070314;28;20435;-71
2022/09/18 03:02:23;;;;;;;0.20;0.20;;;;;;;;;;5068299;28;20432;-71
2022/09/18 03:04:50;;;;;;;0.20;0.20;;;;;;;;;;5074138;28;20426;-71
2022/09/18 03:07:18;;;;;;;0.93;0.30;;;;;;;;;;5068567;28;20420;-71
2022/09/18 03:09:47;;;;;;;0.30;0.30;;;;;;;;;;5061593;28;20431;-71
2022/09/18 03:12:17;;;;;;;0.30;0.30;;;;;;;;;;5070413;28;20480;-71
2022/09/18 03:14:47;;;;;;;0.20;0.20;;;;;;;;;;5072764;28;20489;-71
2022/09/18 03:17:16;;;;;;;0.30;0.30;;;;;;;;;;5068419;28;20534;-71
2022/09/18 03:19:44;;;;;;;0.20;0.20;;;;;;;;;;5077797;28;20435;-71
2022/09/18 03:22:12;;;;;;;0.30;0.30;;;;;;;;;;5074449;28;20433;-71
2022/09/18 03:24:39;;;;;;;0.60;0.43;;;;;;;;;;5067250;28;20512;-71
2022/09/18 03:27:06;;;;;;;0.30;0.30;;;;;;;;;;5056402;28;20427;-70
2022/09/18 03:29:33;;;;;;;0.10;0.10;;;;;;;;;;5069260;28;20431;-71
2022/09/18 03:32:00;;;;;;;0.20;0.20;;;;;;;;;;5074241;28;20420;-70
2022/09/18 03:34:27;;;;;;;0.23;0.23;;;;;;;;;;5067979;28;20855;-70
2022/09/18 03:36:54;;;;;;;0.30;0.30;;;;;;;;;;5056867;28;20435;-70
2022/09/18 03:39:21;;;;;;;0.20;0.20;;;;;;;;;;5069183;28;20488;-70
2022/09/18 03:41:48;;;;;;;0.20;0.20;;;;;;;;;;5066694;28;20428;-69
2022/09/18 03:44:17;;;;;;;0.20;0.20;;;;;;;;;;5064264;28;21093;-70
2022/09/18 03:46:45;;;;;;;0.20;0.20;;;;;;;;;;5070605;28;20929;-70
2022/09/18 03:49:12;;;;;;;0.35;0.28;;;;;;;;;;5072122;28;20522;-70
2022/09/18 03:51:39;;;;;;;0.30;0.30;;;;;;;;;;5076191;28;20550;-69
2022/09/18 03:54:06;;;;;;;0.20;0.20;;;;;;;;;;5065633;28;20427;-69
2022/09/18 03:56:35;;;;;;;0.50;0.20;;;;;;;;;;5067246;28;20783;-70
2022/09/18 03:59:05;;;;;;;0.30;0.30;;;;;;;;;;5068402;28;20455;-70
2022/09/18 04:01:32;;;;;;;0.30;0.30;;;;;;;;;;5066819;28;20508;-69
2022/09/18 04:03:59;;;;;;;0.20;0.20;;;;;;;;;;5067384;28;20518;-69
2022/09/18 04:06:26;;;;;;;0.30;0.30;;;;;;;;;;5066302;28;20427;-70
2022/09/18 04:08:56;;;;;;;0.20;0.20;;;;;;;;;;5069004;28;20430;-69
2022/09/18 04:11:29;;;;;;;0.30;0.30;;;;;;;;;;5075006;28;20438;-70
2022/09/18 04:13:56;;;;;;;0.20;0.20;;;;;;;;;;5064468;28;20433;-70
2022/09/18 04:16:23;;;;;;;0.20;0.20;;;;;;;;;;5072599;28;20434;-71
2022/09/18 04:18:53;;;;;;;0.80;0.50;;;;;;;;;;5065574;28;20427;-70
2022/09/18 04:21:20;;;;;;;0.30;0.30;;;;;;;;;;5060401;28;20459;-69
2022/09/18 04:23:48;;;;;;;0.50;0.30;;;;;;;;;;5063881;28;20493;-70
2022/09/18 04:26:15;;;;;;;0.20;0.20;;;;;;;;;;5066731;28;20427;-70
2022/09/18 04:28:42;;;;;;;0.30;0.30;;;;;;;;;;5068404;28;20431;-72
2022/09/18 04:31:09;;;;;;;0.20;0.20;;;;;;;;;;5070530;28;21018;-72
2022/09/18 04:33:39;;;;;;;0.20;0.20;;;;;;;;;;5069152;28;20431;-71
2022/09/18 04:36:06;;;;;;;0.10;0.10;;;;;;;;;;5066246;28;20450;-71
2022/09/18 04:38:33;;;;;;;0.20;0.20;;;;;;;;;;5069255;28;21140;-71
2022/09/18 04:41:03;;;;;;;0.20;0.20;;;;;;;;;;5069523;28;20806;-71
2022/09/18 04:43:31;;;;;;;0.20;0.20;;;;;;;;;;5065801;28;20442;-72
2022/09/18 04:45:58;;;;;;;0.20;0.20;;;;;;;;;;5074100;28;20465;-71
2022/09/18 04:48:25;;;;;;;0.20;0.20;;;;;;;;;;5069990;28;20796;-71
2022/09/18 04:50:52;;;;;;;0.20;0.20;;;;;;;;;;5072118;28;20428;-70
2022/09/18 04:53:19;;;;;;;0.20;0.20;;;;;;;;;;5071534;28;20489;-71
2022/09/18 04:55:47;;;;;;;0.20;0.20;;;;;;;;;;5080245;28;20426;-72
2022/09/18 04:58:15;;;;;;;0.20;0.20;;;;;;;;;;5072804;28;20442;-71
2022/09/18 05:00:42;;;;;;;0.20;0.20;;;;;;;;;;5073064;28;21031;-70
2022/09/18 05:03:10;;;;;;;0.20;0.20;;;;;;;;;;5072316;28;20428;-71
2022/09/18 05:05:40;;;;;;;0.20;0.20;;;;;;;;;;5083444;28;20430;-72
2022/09/18 05:08:07;;;;;;;0.20;0.20;;;;;;;;;;5081700;28;20997;-70
2022/09/18 05:10:34;;;;;;;0.30;0.30;;;;;;;;;;5072114;28;20419;-72
2022/09/18 05:13:01;;;;;;;0.20;0.20;;;;;;;;;;5071632;28;20500;-72
2022/09/18 05:15:28;;;;;;;0.20;0.20;;;;;;;;;;5070873;28;20430;-71
2022/09/18 05:18:02;;;;;;;0.30;0.30;;;;;;;;;;5079286;28;20438;-72
2022/09/18 05:20:36;;;;;;;0.50;0.50;;;;;;;;;;5077749;28;20494;-71
2022/09/18 05:23:06;;;;;;;0.25;0.25;;;;;;;;;;5090395;28;20433;-72
2022/09/18 05:25:38;;;;;;;0.22;0.22;;;;;;;;;;5092477;28;20433;-73
2022/09/18 05:28:08;;;;;;;0.28;0.28;;;;;;;;;;5075336;28;20549;-72
2022/09/18 05:30:36;;;;;;;0.20;0.20;;;;;;;;;;5070744;28;20423;-71
2022/09/18 05:33:05;;;;;;;0.20;0.20;;;;;;;;;;5071500;28;20431;-71
2022/09/18 05:35:32;;;;;;;0.20;0.20;;;;;;;;;;5072254;28;20427;-71
2022/09/18 05:37:59;;;;;;;0.30;0.30;;;;;;;;;;5071138;28;20427;-71
2022/09/18 05:40:29;;;;;;;0.20;0.20;;;;;;;;;;5071681;28;20450;-72
2022/09/18 05:43:03;;;;;;;0.20;0.20;;;;;;;;;;5071566;28;20427;-71
2022/09/18 05:45:30;;;;;;;0.20;0.20;;;;;;;;;;5071697;28;20435;-71
2022/09/18 05:48:04;;;;;;;0.20;0.20;;;;;;;;;;5071834;28;20445;-71
2022/09/18 05:50:32;;;;;;;0.20;0.20;;;;;;;;;;5071842;28;20427;-71
2022/09/18 05:53:05;;;;;;;0.50;0.20;;;;;;;;;;5071449;28;20423;-73
2022/09/18 05:55:40;;;;;;;0.20;0.20;;;;;;;;;;5070266;28;20438;-72
2022/09/18 05:58:10;;;;;;;0.53;0.27;;;;;;;;;;5071444;28;20436;-72
2022/09/18 06:00:43;;;;;;;0.20;0.20;;;;;;;;;;5071653;28;20434;-71
2022/09/18 06:03:14;;;;;;;0.80;0.30;;;;;;;;;;5071021;28;20431;-72
2022/09/18 06:05:42;;;;;;;0.10;0.10;;;;;;;;;;5071507;28;20431;-73
2022/09/18 06:08:15;;;;;;;0.20;0.20;;;;;;;;;;5071275;28;20420;-73
2022/09/18 06:10:42;;;;;;;0.20;0.20;;;;;;;;;;5071493;28;20449;-72
2022/09/18 06:13:11;;;;;;;0.20;0.20;;;;;;;;;;5071174;28;20435;-72
2022/09/18 06:15:42;;;;;;;0.20;0.20;;;;;;;;;;5071756;28;20427;-72
2022/09/18 06:18:13;;;;;;;1.00;0.43;;;;;;;;;;5071166;28;20434;-72
2022/09/18 06:20:44;;;;;;;0.20;0.20;;;;;;;;;;5070784;28;20438;-72
2022/09/18 06:23:11;;;;;;;0.20;0.20;;;;;;;;;;5070812;28;20431;-72
2022/09/18 06:25:38;;;;;;;0.20;0.20;;;;;;;;;;5062901;28;20486;-72
2022/09/18 06:28:07;;;;;;;0.10;0.10;;;;;;;;;;5051101;28;20476;-72
2022/09/18 06:30:36;;;;;;;0.20;0.20;;;;;;;;;;5051066;28;20429;-72
2022/09/18 06:33:06;;;;;;;0.10;0.10;;;;;;;;;;5050511;28;20433;-73
2022/09/18 06:35:34;;;;;;;0.30;0.30;;;;;;;;;;5051040;28;20555;-71
2022/09/18 06:38:01;;;;;;;0.13;0.13;;;;;;;;;;5050833;28;20444;-72
2022/09/18 06:40:29;;;;;;;0.20;0.20;;;;;;;;;;5050866;28;20479;-72
2022/09/18 06:42:57;;;;;;;0.20;0.20;;;;;;;;;;5065700;28;20450;-72
2022/09/18 06:45:28;;;;;;;0.10;0.10;;;;;;;;;;5069346;28;20428;-74
2022/09/18 06:47:55;;;;;;;0.40;0.30;;;;;;;;;;5070360;28;20512;-72
2022/09/18 06:50:24;;;;;;;0.10;0.10;;;;;;;;;;5070242;28;20518;-73
2022/09/18 06:52:51;;;;;;;0.20;0.20;;;;;;;;;;5069090;28;20423;-71
2022/09/18 06:55:19;;;;;;;0.17;0.17;;;;;;;;;;5070200;28;20428;-71
2022/09/18 06:57:55;;;;;;;0.20;0.20;;;;;;;;;;5070263;28;20428;-71
2022/09/18 07:00:26;;;;;;;0.20;0.20;;;;;;;;;;5070312;28;20423;-72
2022/09/18 07:03:00;;;;;;;0.20;0.20;;;;;;;;;;5070100;28;20434;-71
2022/09/18 07:05:29;;;;;;;0.10;0.10;;;;;;;;;;5069088;28;20802;-72
2022/09/18 07:07:56;;;;;;;0.20;0.20;;;;;;;;;;5070231;28;20465;-73
2022/09/18 07:10:24;;;;;;;0.40;0.30;;;;;;;;;;5070349;28;20463;-72
2022/09/18 07:12:58;;;;;;;0.20;0.20;;;;;;;;;;5069696;28;20423;-72
2022/09/18 07:15:28;;;;;;;0.20;0.20;;;;;;;;;;5068854;28;20453;-73
2022/09/18 07:18:00;;;;;;;0.10;0.10;;;;;;;;;;5069983;28;20427;-73
2022/09/18 07:20:30;;;;;;;0.22;0.22;;;;;;;;;;5069721;28;20542;-71
2022/09/18 07:22:58;;;;;;;0.13;0.13;;;;;;;;;;5068509;28;20431;-72
2022/09/18 07:25:26;;;;;;;0.20;0.20;;;;;;;;;;5069882;28;20431;-71
2022/09/18 07:27:53;;;;;;;0.20;0.20;;;;;;;;;;5070240;28;20444;-71
2022/09/18 07:30:20;;;;;;;0.20;0.20;;;;;;;;;;5070248;28;20427;-73
2022/09/18 07:32:48;;;;;;;0.20;0.20;;;;;;;;;;5069883;28;20427;-72
2022/09/18 07:35:15;;;;;;;0.13;0.13;;;;;;;;;;5069706;28;20432;-72
2022/09/18 07:37:44;;;;;;;0.20;0.20;;;;;;;;;;5070531;28;20431;-72
2022/09/18 07:40:12;;;;;;;0.20;0.20;;;;;;;;;;5069858;28;20929;-71
2022/09/18 07:42:41;;;;;;;0.20;0.20;;;;;;;;;;5069938;28;20527;-71
2022/09/18 07:45:08;;;;;;;0.20;0.20;;;;;;;;;;5069520;28;20458;-72
2022/09/18 07:47:36;;;;;;;0.20;0.20;;;;;;;;;;5069779;28;20419;-74
2022/09/18 07:50:03;;;;;;;0.30;0.20;;;;;;;;;;5068879;28;20431;-73
2022/09/18 07:52:30;;;;;;;0.20;0.20;;;;;;;;;;5068537;28;20772;-72
2022/09/18 07:54:59;;;;;;;0.20;0.20;;;;;;;;;;5068527;28;20427;-72
2022/09/18 07:57:29;;;;;;;0.17;0.17;;;;;;;;;;5068892;28;20431;-72
2022/09/18 07:59:56;;;;;;;0.30;0.30;;;;;;;;;;5069735;28;20439;-72
2022/09/18 08:02:23;;;;;;;0.60;0.20;;;;;;;;;;5071725;28;20434;-72
2022/09/18 08:04:51;;;;;;;0.22;0.22;;;;;;;;;;5073125;28;20506;-73
2022/09/18 08:07:18;;;;;;;0.25;0.25;;;;;;;;;;5073632;28;20431;-74
2022/09/18 08:09:45;;;;;;;0.10;0.10;;;;;;;;;;5073773;28;20968;-72
2022/09/18 08:12:12;;;;;;;0.20;0.20;;;;;;;;;;5073505;28;20890;-72
2022/09/18 08:14:39;;;;;;;0.30;0.30;;;;;;;;;;5073157;28;20515;-73
2022/09/18 08:17:06;;;;;;;0.70;0.30;;;;;;;;;;5073364;28;20427;-73
2022/09/18 08:19:33;;;;;;;0.10;0.10;;;;;;;;;;5072183;28;20438;-73
2022/09/18 08:22:00;;;;;;;0.30;0.30;;;;;;;;;;5073505;28;20427;-72
2022/09/18 08:24:30;;;;;;;0.22;0.22;;;;;;;;;;5071564;28;20427;-72
2022/09/18 08:27:06;;;;;;;0.20;0.20;;;;;;;;;;5073397;28;20424;-73
2022/09/18 08:29:33;;;;;;;0.10;0.10;;;;;;;;;;5073381;28;20434;-73
2022/09/18 08:32:01;;;;;;;0.20;0.20;;;;;;;;;;5071688;28;20450;-73
2022/09/18 08:34:33;;;;;;;0.20;0.20;;;;;;;;;;5071685;28;20423;-73
2022/09/18 08:37:00;;;;;;;0.20;0.20;;;;;;;;;;5073287;28;20431;-74
2022/09/18 08:39:31;;;;;;;0.20;0.20;;;;;;;;;;5072102;28;21160;-72
2022/09/18 08:42:33;;;;;;;1.90;0.30;;;;;;;;;;5073238;28;20526;-73
2022/09/18 08:45:15;;;;;;;0.10;0.10;;;;;;;;;;4993812;28;20433;-73
2022/09/18 08:47:46;;;;;;;0.20;0.20;;;;;;;;;;5064134;28;20424;-74
2022/09/18 08:50:23;;;;;;;0.25;0.25;;;;;;;;;;5072898;28;20472;-73
2022/09/18 08:52:54;;;;;;;1.10;0.30;;;;;;;;;;5071923;28;20427;-73
2022/09/18 08:55:26;;;;;;;0.20;0.20;;;;;;;;;;5073199;28;20836;-73
2022/09/18 08:57:59;;;;;;;0.38;0.38;;;;;;;;;;5072817;28;20938;-72
2022/09/18 09:00:26;;;;;;;0.30;0.30;;;;;;;;;;5071683;28;20489;-72
2022/09/18 09:03:20;;;;;;;0.20;0.20;;;;;;;;;;5072673;28;20435;-73
2022/09/18 09:05:57;;;;;;;0.30;0.30;;;;;;;;;;5070003;28;20442;-73
2022/09/18 09:08:32;;;;;;;0.60;0.60;;;;;;;;;;5072697;28;20446;-74
2022/09/18 09:10:59;;;;;;;0.30;0.30;;;;;;;;;;5072738;28;20424;-72
2022/09/18 09:13:45;;;;;;;3.67;0.30;;;;;;;;;;5070866;28;20479;-73
2022/09/18 09:16:16;;;;;;;0.30;0.30;;;;;;;;;;5072237;28;20415;-73
2022/09/18 09:18:58;;;;;;;0.30;0.30;;;;;;;;;;5072245;28;20431;-72
2022/09/18 09:21:28;;;;;;;0.30;0.30;;;;;;;;;;5063890;28;20452;-71
2022/09/18 09:24:04;;;;;;;0.30;0.30;;;;;;;;;;5050978;28;20838;-72
2022/09/18 09:26:34;;;;;;;0.30;0.30;;;;;;;;;;5052255;28;20429;-72
2022/09/18 09:29:01;;;;;;;0.30;0.30;;;;;;;;;;5052006;28;20429;-74
2022/09/18 09:31:39;;;;;;;0.20;0.20;;;;;;;;;;5051955;28;20927;-72
2022/09/18 09:34:13;;;;;;;0.20;0.20;;;;;;;;;;5054203;28;20463;-72
2022/09/18 09:36:42;;;;;;;0.20;0.20;;;;;;;;;;5071758;28;20972;-73
2022/09/18 09:39:25;;;;;;;0.30;0.30;;;;;;;;;;5072039;28;20431;-72
2022/09/18 09:42:02;;;;;;;0.22;0.22;;;;;;;;;;5072108;28;20435;-73
2022/09/18 09:44:39;;;;;;;0.20;0.20;;;;;;;;;;5071487;28;20493;-71
2022/09/18 09:47:13;;;;;;;0.45;0.45;;;;;;;;;;5071873;28;20446;-72
2022/09/18 09:50:03;;;;;;;1.07;0.40;;;;;;;;;;5071284;28;20427;-72
2022/09/18 09:52:30;;;;;;;0.20;0.20;;;;;;;;;;5070619;28;20485;-73
2022/09/18 09:55:07;;;;;;;0.20;0.20;;;;;;;;;;5070021;28;20461;-72
2022/09/18 09:57:40;;;;;;;0.30;0.30;;;;;;;;;;5070443;28;20434;-72
2022/09/18 10:00:16;;;;;;;0.40;0.40;;;;;;;;;;5071763;28;20439;-74
2022/09/18 10:02:53;;;;;;;1.02;0.52;;;;;;;;;;5071176;28;20427;-73
2022/09/18 10:05:25;;;;;;;0.32;0.32;;;;;;;;;;5071556;28;20439;-73
2022/09/18 10:07:56;;;;;;;0.22;0.22;;;;;;;;;;5071467;28;20436;-74
2022/09/18 10:10:29;;;;;;;1.50;0.40;;;;;;;;;;5071618;28;20427;-73
2022/09/18 10:12:59;;;;;;;1.20;0.50;;;;;;;;;;5070804;28;20427;-74
2022/09/18 10:15:35;;;;;;;0.10;0.10;;;;;;;;;;5071359;28;20435;-73
2022/09/18 10:18:04;;;;;;;0.20;0.20;;;;;;;;;;5071306;28;20426;-73
2022/09/18 10:20:32;;;;;;;0.23;0.23;;;;;;;;;;5058684;28;20429;-73
2022/09/18 10:23:25;;;;;;;0.70;0.30;;;;;;;;;;5050148;28;20440;-73
2022/09/18 10:26:02;;;;;;;0.10;0.10;;;;;;;;;;5029850;28;20478;-74
2022/09/18 10:28:29;;;;;;;0.17;0.17;;;;;;;;;;5050518;28;20429;-74
2022/09/18 10:31:04;;;;;;;0.20;0.20;;;;;;;;;;5050744;28;20425;-73
2022/09/18 10:33:34;;;;;;;0.20;0.20;;;;;;;;;;5049814;28;20433;-74
2022/09/18 10:36:20;;;;;;;0.30;0.30;;;;;;;;;;5051082;28;20487;-74
2022/09/18 10:38:47;;;;;;;0.20;0.20;;;;;;;;;;5051016;28;20941;-73
2022/09/18 10:41:30;;;;;;;0.30;0.30;;;;;;;;;;5049714;28;20911;-73
2022/09/18 10:44:00;;;;;;;0.35;0.28;;;;;;;;;;5050209;28;20470;-73
2022/09/18 10:46:35;;;;;;;0.20;0.20;;;;;;;;;;5050637;28;20433;-73
2022/09/18 10:49:19;;;;;;;0.20;0.20;;;;;;;;;;5050609;28;20463;-74
2022/09/18 10:51:46;;;;;;;0.20;0.20;;;;;;;;;;5050240;28;20437;-74
2022/09/18 10:54:18;;;;;;;0.20;0.20;;;;;;;;;;5050003;28;20487;-72
2022/09/18 10:56:45;;;;;;;0.20;0.20;;;;;;;;;;5050269;28;20429;-73
2022/09/18 10:59:14;;;;;;;0.20;0.20;;;;;;;;;;5050484;28;20437;-73
2022/09/18 11:01:41;;;;;;;0.20;0.20;;;;;;;;;;5050406;28;20429;-73
2022/09/18 11:04:15;;;;;;;0.20;0.20;;;;;;;;;;5049690;28;20473;-72
2022/09/18 11:06:43;;;;;;;0.40;0.40;;;;;;;;;;5050484;28;20428;-75
2022/09/18 11:09:19;;;;;;;0.20;0.20;;;;;;;;;;5049105;28;20476;-74
2022/09/18 11:11:50;;;;;;;0.20;0.20;;;;;;;;;;5050239;28;20421;-73
2022/09/18 11:14:29;;;;;;;0.20;0.20;;;;;;;;;;5049826;28;20452;-74
2022/09/18 11:16:58;;;;;;;0.30;0.30;;;;;;;;;;5052788;28;20436;-74
2022/09/18 11:19:31;;;;;;;0.40;0.40;;;;;;;;;;5064987;28;20427;-74
2022/09/18 11:22:03;;;;;;;0.20;0.20;;;;;;;;;;5070311;28;20914;-74
2022/09/18 11:24:34;;;;;;;0.20;0.20;;;;;;;;;;5069396;28;20432;-73
2022/09/18 11:27:03;;;;;;;0.20;0.20;;;;;;;;;;5069550;28;20432;-74
2022/09/18 11:29:32;;;;;;;0.75;0.30;;;;;;;;;;5070249;28;20427;-73
2022/09/18 11:31:59;;;;;;;0.50;0.50;;;;;;;;;;5069918;28;21056;-72
2022/09/18 11:34:30;;;;;;;0.30;0.30;;;;;;;;;;5069306;28;20921;-72
2022/09/18 11:37:04;;;;;;;0.50;0.50;;;;;;;;;;5067949;28;20848;-72
2022/09/18 11:39:33;;;;;;;0.30;0.30;;;;;;;;;;5069637;28;20509;-73
2022/09/18 11:42:01;;;;;;;0.20;0.20;;;;;;;;;;5069800;28;20431;-73
2022/09/18 11:44:37;;;;;;;0.30;0.30;;;;;;;;;;5069536;28;20508;-73
2022/09/18 11:47:13;;;;;;;0.30;0.30;;;;;;;;;;5069902;28;20423;-74
2022/09/18 11:49:43;;;;;;;0.20;0.20;;;;;;;;;;5068536;28;20918;-73
2022/09/18 11:52:14;;;;;;;0.30;0.30;;;;;;;;;;5069553;28;20458;-73
2022/09/18 11:54:51;;;;;;;0.20;0.20;;;;;;;;;;5067969;28;20442;-73
2022/09/18 11:57:21;;;;;;;0.30;0.30;;;;;;;;;;5069418;28;20442;-74
2022/09/18 11:59:59;;;;;;;0.30;0.30;;;;;;;;;;5069412;28;20430;-73
2022/09/18 12:02:37;;;;;;;0.37;0.37;;;;;;;;;;5069456;28;20480;-74
2022/09/18 12:05:19;;;;;;;0.28;0.28;;;;;;;;;;5069143;28;20424;-73
2022/09/18 12:07:51;;;;;;;0.25;0.25;;;;;;;;;;5069738;28;20775;-74
2022/09/18 12:10:26;;;;;;;0.20;0.20;;;;;;;;;;5069634;28;20420;-74
2022/09/18 12:13:11;;;;;;;0.30;0.30;;;;;;;;;;5069079;28;20438;-73
2022/09/18 12:15:40;;;;;;;0.20;0.20;;;;;;;;;;5069364;28;20431;-73
2022/09/18 12:18:16;;;;;;;1.23;0.50;;;;;;;;;;5069537;28;20431;-74
2022/09/18 12:21:10;;;;;;;0.30;0.30;;;;;;;;;;5069431;28;20439;-75
2022/09/18 12:23:37;;;;;;;0.30;0.30;;;;;;;;;;5064919;28;20439;-73
2022/09/18 12:26:07;;;;;;;1.20;0.40;;;;;;;;;;5069251;28;20473;-73
2022/09/18 12:28:49;;;;;;;0.10;0.10;;;;;;;;;;5069168;28;20431;-73
2022/09/18 12:31:21;;;;;;;0.32;0.30;;;;;;;;;;5069290;28;20431;-74
2022/09/18 12:34:03;;;;;;;0.70;0.32;;;;;;;;;;5068739;28;20503;-74
2022/09/18 12:36:36;;;;;;;0.20;0.20;;;;;;;;;;5069551;28;20431;-74
2022/09/18 12:39:19;;;;;;;0.32;0.32;;;;;;;;;;5069248;28;20444;-74
2022/09/18 12:41:51;;;;;;;0.45;0.45;;;;;;;;;;5069171;28;20423;-75
2022/09/18 12:44:18;;;;;;;0.40;0.40;;;;;;;;;;5068674;28;20442;-74
2022/09/18 12:47:02;;;;;;;0.60;0.40;;;;;;;;;;5069461;28;20427;-74
2022/09/18 12:49:49;;;;;;;0.20;0.20;;;;;;;;;;5073012;28;20426;-73
2022/09/18 12:52:21;;;;;;;0.20;0.20;;;;;;;;;;5071734;28;20431;-74
2022/09/18 12:54:52;;;;;;;0.20;0.20;;;;;;;;;;5072303;28;20514;-74
2022/09/18 12:57:19;;;;;;;0.22;0.22;;;;;;;;;;5072812;28;20480;-74
2022/09/18 12:59:53;;;;;;;0.22;0.22;;;;;;;;;;5072894;28;20427;-74
2022/09/18 13:02:26;;;;;;;0.30;0.30;;;;;;;;;;5072972;28;20902;-75
2022/09/18 13:05:05;;;;;;;3.20;0.60;;;;;;;;;;5071897;28;21187;-72
2022/09/18 13:07:45;;;;;;;0.30;0.30;;;;;;;;;;5072485;28;20428;-74
2022/09/18 13:10:19;;;;;;;0.20;0.20;;;;;;;;;;5072731;28;20428;-73
2022/09/18 13:12:52;;;;;;;0.20;0.20;;;;;;;;;;5072524;28;20434;-73
2022/09/18 13:15:21;;;;;;;0.30;0.30;;;;;;;;;;5068010;28;20437;-74
2022/09/18 13:17:52;;;;;;;0.30;0.30;;;;;;;;;;5052200;28;20445;-75
2022/09/18 13:20:33;;;;;;;0.40;0.40;;;;;;;;;;5052464;28;20860;-75
2022/09/18 13:23:01;;;;;;;0.20;0.20;;;;;;;;;;5051975;28;20444;-74
2022/09/18 13:25:33;;;;;;;0.20;0.20;;;;;;;;;;5052170;28;20436;-74
2022/09/18 13:28:02;;;;;;;0.22;0.22;;;;;;;;;;5052071;28;20458;-74
2022/09/18 13:30:33;;;;;;;0.30;0.30;;;;;;;;;;5052407;28;20429;-74
2022/09/18 13:33:03;;;;;;;0.30;0.30;;;;;;;;;;5051992;28;20428;-75
2022/09/18 13:35:34;;;;;;;0.40;0.40;;;;;;;;;;5051942;28;20800;-74
2022/09/18 13:38:05;;;;;;;0.30;0.30;;;;;;;;;;5050630;28;20955;-74
2022/09/18 13:40:38;;;;;;;0.10;0.10;;;;;;;;;;5052083;28;20444;-75
2022/09/18 13:43:14;;;;;;;0.25;0.25;;;;;;;;;;5049998;28;20908;-75
2022/09/18 13:45:41;;;;;;;0.20;0.20;;;;;;;;;;5051588;28;20433;-73
2022/09/18 13:48:35;;;;;;;0.38;0.38;;;;;;;;;;5051671;28;20922;-75
2022/09/18 13:51:04;;;;;;;0.30;0.30;;;;;;;;;;5049237;28;20765;-75
2022/09/18 13:53:37;;;;;;;0.38;0.38;;;;;;;;;;5051170;28;20433;-75
2022/09/18 13:56:06;;;;;;;0.30;0.30;;;;;;;;;;5051837;28;20490;-75
2022/09/18 13:58:33;;;;;;;0.70;0.30;;;;;;;;;;5051387;28;20904;-75
2022/09/18 14:01:09;;;;;;;0.20;0.20;;;;;;;;;;5051027;28;20912;-75
2022/09/18 14:03:38;;;;;;;0.40;0.30;;;;;;;;;;5050234;28;20846;-74
2022/09/18 14:06:24;;;;;;;0.38;0.38;;;;;;;;;;5050384;28;20976;-73
2022/09/18 14:08:51;;;;;;;0.30;0.30;;;;;;;;;;5050224;28;20429;-74
2022/09/18 14:11:24;;;;;;;0.20;0.20;;;;;;;;;;5049977;28;20425;-73
2022/09/18 14:13:53;;;;;;;0.25;0.25;;;;;;;;;;5050510;28;20429;-74
2022/09/18 14:16:22;;;;;;;0.20;0.20;;;;;;;;;;5051515;28;20469;-75
2022/09/18 14:18:49;;;;;;;0.40;0.40;;;;;;;;;;5051576;28;20436;-74
2022/09/18 14:21:16;;;;;;;0.35;0.35;;;;;;;;;;5050299;28;20448;-74
2022/09/18 14:23:48;;;;;;;0.30;0.30;;;;;;;;;;5051571;28;20444;-74
2022/09/18 14:26:31;;;;;;;0.30;0.30;;;;;;;;;;5051127;28;20456;-74
2022/09/18 14:29:15;;;;;;;0.40;0.40;;;;;;;;;;5051737;28;20428;-74
2022/09/18 14:31:52;;;;;;;0.30;0.30;;;;;;;;;;5050945;28;20437;-74
2022/09/18 14:34:26;;;;;;;0.32;0.32;;;;;;;;;;5050649;28;20783;-73
2022/09/18 14:37:13;;;;;;;0.30;0.30;;;;;;;;;;5050896;28;20437;-74
2022/09/18 14:39:43;;;;;;;0.30;0.30;;;;;;;;;;5050906;28;20437;-74
2022/09/18 14:42:16;;;;;;;0.30;0.30;;;;;;;;;;5050956;28;20965;-73
2022/09/18 14:44:47;;;;;;;0.90;0.68;;;;;;;;;;5050665;28;20571;-76
2022/09/18 14:47:20;;;;;;;0.50;0.50;;;;;;;;;;5051418;28;20437;-74
2022/09/18 14:49:48;;;;;;;0.25;0.25;;;;;;;;;;5068357;28;20453;-74
2022/09/18 14:52:26;;;;;;;0.30;0.30;;;;;;;;;;5063239;28;20438;-76
2022/09/18 14:54:54;;;;;;;0.30;0.30;;;;;;;;;;5069166;28;20423;-71
2022/09/18 14:57:24;;;;;;;0.38;0.38;;;;;;;;;;5070420;28;20790;-75
2022/09/18 14:59:52;;;;;;;0.30;0.30;;;;;;;;;;5069373;28;20432;-73
2022/09/18 15:02:27;;;;;;;0.40;0.35;;;;;;;;;;5070447;28;20427;-74
2022/09/18 15:04:54;;;;;;;0.20;0.20;;;;;;;;;;5070215;28;20427;-74
2022/09/18 15:07:22;;;;;;;0.30;0.30;;;;;;;;;;5070436;28;20423;-73
2022/09/18 15:09:52;;;;;;;0.50;0.50;;;;;;;;;;5068757;28;20921;-73